Time;durP1;ratioP1;P1;durP2;ratioP2;P2;SDS_P1;SDS_P2;PMS_P1;PMS_P2;Temp;Humidity;BMP_temperature;BMP_pressure;BME280_temperature;BME280_humidity;BME280_pressure;Samples;Min_cycle;Max_cycle;Signal;HPM_P1;HPM_P2
2022/01/13 00:02:27;;;;;;;205.77;85.37;;;-2.10;99.90;;;;;;10452526;28;20032;-84
2022/01/13 00:07:28;;;;;;;196.60;83.83;;;-2.10;99.90;;;;;;10454318;28;20017;-86
2022/01/13 00:12:34;;;;;;;203.27;88.10;;;-2.10;99.90;;;;;;10458427;28;20048;-84
2022/01/13 00:28:19;;;;;;;242.27;100.47;;;-2.00;99.90;;;;;;10453731;28;20021;-85
2022/01/13 00:33:24;;;;;;;220.87;94.33;;;-2.00;99.90;;;;;;10453090;28;20036;-84
2022/01/13 00:38:26;;;;;;;252.10;99.87;;;-2.00;99.90;;;;;;10437804;28;20104;-85
2022/01/13 00:43:26;;;;;;;271.53;102.83;;;-1.90;99.90;;;;;;10465970;28;20128;-84
2022/01/13 00:48:27;;;;;;;270.50;107.77;;;-1.90;99.90;;;;;;10452512;28;20032;-84
2022/01/13 00:53:28;;;;;;;269.63;105.97;;;-1.90;99.90;;;;;;10452469;28;20028;-85
2022/01/13 00:58:30;;;;;;;301.20;110.90;;;-1.90;99.90;;;;;;10452537;28;20020;-84
2022/01/13 01:03:32;;;;;;;302.00;109.20;;;-1.90;99.90;;;;;;10433323;28;20381;-85
2022/01/13 01:08:33;;;;;;;348.83;125.30;;;-1.90;99.90;;;;;;10452839;28;20021;-86
2022/01/13 01:13:36;;;;;;;310.53;115.87;;;-1.90;99.90;;;;;;10451613;28;20548;-85
2022/01/13 01:28:59;;;;;;;319.67;112.13;;;-1.70;99.90;;;;;;10438469;28;20037;-84
2022/01/13 01:39:27;;;;;;;270.37;95.63;;;-1.60;99.90;;;;;;10404248;28;20037;-86
2022/01/13 01:44:34;;;;;;;292.00;95.07;;;-1.60;99.90;;;;;;10431350;28;20516;-85
2022/01/13 01:49:39;;;;;;;260.77;86.93;;;-1.50;99.90;;;;;;10440286;28;20033;-84
2022/01/13 01:54:40;;;;;;;231.40;80.50;;;-1.40;99.90;;;;;;10431488;28;20490;-85
2022/01/13 01:59:42;;;;;;;264.57;83.90;;;-1.30;99.90;;;;;;10450156;28;20025;-84
2022/01/13 02:04:44;;;;;;;240.67;81.47;;;-1.30;99.90;;;;;;10449779;28;20068;-84
2022/01/13 02:09:51;;;;;;;242.87;86.67;;;-1.30;99.90;;;;;;10441354;28;20865;-84
2022/01/13 02:20:19;;;;;;;272.70;88.83;;;-1.10;99.90;;;;;;10413503;28;20037;-85
2022/01/13 02:25:20;;;;;;;278.50;88.53;;;-1.10;99.90;;;;;;10468747;28;20040;-86
2022/01/13 02:30:20;;;;;;;282.83;86.80;;;-1.10;99.90;;;;;;10464981;28;20033;-84
2022/01/13 02:35:24;;;;;;;287.17;94.00;;;-1.10;99.90;;;;;;10449389;28;20095;-85
2022/01/13 02:40:25;;;;;;;291.13;97.97;;;-1.00;99.90;;;;;;10448558;28;20079;-83
2022/01/13 02:45:32;;;;;;;278.63;96.47;;;-1.00;99.90;;;;;;10432694;28;20064;-84
2022/01/13 02:50:33;;;;;;;340.47;102.57;;;-0.90;99.90;;;;;;10445159;28;20056;-86
2022/01/13 02:55:34;;;;;;;292.13;98.33;;;-0.90;99.90;;;;;;10439344;28;20025;-86
2022/01/13 03:00:35;;;;;;;271.23;92.67;;;-0.90;99.90;;;;;;10438922;28;20021;-83
2022/01/13 03:05:38;;;;;;;316.00;93.40;;;-0.90;99.90;;;;;;10460034;28;20046;-83
2022/01/13 03:10:39;;;;;;;265.90;90.30;;;-0.80;99.90;;;;;;10458470;28;20041;-85
2022/01/13 03:15:40;;;;;;;272.10;89.60;;;-0.80;99.90;;;;;;10438391;28;20021;-83
2022/01/13 03:20:40;;;;;;;279.17;96.00;;;-0.70;99.90;;;;;;10454764;28;20792;-83
2022/01/13 03:25:44;;;;;;;293.97;88.87;;;-0.70;99.90;;;;;;10438159;28;20041;-83
2022/01/13 03:30:45;;;;;;;302.33;90.07;;;-0.60;99.90;;;;;;10455468;28;20017;-83
2022/01/13 03:35:46;;;;;;;267.70;82.80;;;-0.60;99.90;;;;;;10455957;28;20037;-83
2022/01/13 03:40:46;;;;;;;303.67;89.63;;;-0.50;99.90;;;;;;10436445;28;20048;-85
2022/01/13 03:45:47;;;;;;;248.47;77.83;;;-0.50;99.90;;;;;;10436954;28;20405;-82
2022/01/13 03:50:48;;;;;;;239.00;72.97;;;-0.40;99.90;;;;;;10457253;28;20033;-85
2022/01/13 03:56:17;;;;;;;198.20;62.60;;;-0.40;99.90;;;;;;10454502;28;20054;-83
2022/01/13 04:01:57;;;;;;;219.73;64.97;;;-0.30;99.90;;;;;;10467095;28;20080;-83
2022/01/13 04:07:12;;;;;;;217.07;64.33;;;-0.20;99.90;;;;;;10431246;28;20454;-85
2022/01/13 04:12:14;;;;;;;224.40;62.45;;;-0.20;99.90;;;;;;10450983;28;20048;-89
2022/01/13 04:17:21;;;;;;;209.13;62.80;;;-0.10;99.90;;;;;;10439525;28;20033;-86
2022/01/13 04:22:24;;;;;;;195.80;63.73;;;0.00;99.90;;;;;;10400342;28;20033;-84
2022/01/13 04:27:30;;;;;;;203.10;61.80;;;0.00;99.90;;;;;;10459953;28;20024;-81
2022/01/13 04:32:30;;;;;;;148.57;46.53;;;0.00;99.90;;;;;;10476724;28;20032;-83
2022/01/13 04:37:31;;;;;;;209.77;65.30;;;0.10;99.90;;;;;;10456434;28;20267;-80
2022/01/13 04:42:36;;;;;;;192.27;61.50;;;0.20;99.90;;;;;;10453271;28;20190;-82
2022/01/13 04:47:37;;;;;;;215.20;61.97;;;0.20;99.90;;;;;;10434346;28;20388;-84
2022/01/13 04:52:38;;;;;;;189.83;56.37;;;0.20;99.90;;;;;;10440364;28;20602;-87
2022/01/13 04:57:39;;;;;;;196.13;61.43;;;0.30;99.90;;;;;;10451524;28;20053;-83
2022/01/13 05:02:40;;;;;;;196.60;60.87;;;0.30;99.90;;;;;;10449908;28;20508;-82
2022/01/13 05:07:41;;;;;;;187.07;60.30;;;0.30;99.90;;;;;;10432531;28;20048;-83
2022/01/13 05:12:44;;;;;;;177.33;59.23;;;0.40;99.90;;;;;;10452720;28;20057;-82
2022/01/13 05:22:51;;;;;;;155.87;51.30;;;0.40;99.90;;;;;;10453547;28;20045;-83
2022/01/13 05:27:52;;;;;;;150.70;51.33;;;0.50;99.90;;;;;;10458343;28;20062;-84
2022/01/13 05:32:53;;;;;;;142.57;49.93;;;0.50;99.90;;;;;;10448810;28;20032;-85
2022/01/13 05:37:54;;;;;;;145.10;48.43;;;0.50;99.90;;;;;;10458397;28;20117;-83
2022/01/13 05:42:55;;;;;;;136.57;47.83;;;0.50;99.90;;;;;;10443573;28;20449;-83
2022/01/13 05:48:00;;;;;;;109.00;43.97;;;0.60;99.90;;;;;;10450311;28;20036;-82
2022/01/13 05:53:02;;;;;;;113.43;43.97;;;0.60;99.90;;;;;;10443194;28;20626;-86
2022/01/13 05:58:03;;;;;;;95.30;37.40;;;0.60;99.90;;;;;;10438421;28;20158;-85
2022/01/13 06:03:04;;;;;;;97.17;37.53;;;0.60;99.90;;;;;;10437516;28;20037;-83
2022/01/13 06:08:05;;;;;;;98.87;38.83;;;0.60;99.90;;;;;;10440678;28;20570;-85
2022/01/13 06:13:06;;;;;;;89.50;33.40;;;0.60;99.90;;;;;;10442846;28;20128;-85
2022/01/13 06:18:14;;;;;;;92.13;36.67;;;0.60;99.90;;;;;;10445118;28;20025;-84
2022/01/13 06:23:15;;;;;;;97.67;38.57;;;0.60;99.90;;;;;;10451466;28;20039;-84
2022/01/13 06:28:15;;;;;;;94.63;39.30;;;0.60;99.90;;;;;;10447357;28;20017;-85
2022/01/13 06:33:16;;;;;;;121.10;43.83;;;0.60;99.90;;;;;;10450191;28;20029;-84
2022/01/13 06:38:17;;;;;;;102.00;41.73;;;0.70;99.90;;;;;;10448834;28;20059;-86
2022/01/13 06:43:18;;;;;;;100.03;41.70;;;0.70;99.90;;;;;;10428548;28;20029;-84
2022/01/13 06:48:18;;;;;;;101.70;45.03;;;0.70;99.90;;;;;;10447789;28;20091;-85
2022/01/13 06:53:21;;;;;;;143.93;60.73;;;0.70;99.90;;;;;;10447681;28;20727;-83
2022/01/13 06:58:22;;;;;;;103.30;42.67;;;0.70;99.90;;;;;;10454023;28;20021;-83
2022/01/13 07:03:22;;;;;;;122.27;50.13;;;0.80;99.90;;;;;;10472336;28;20036;-83
2022/01/13 07:08:23;;;;;;;125.77;50.57;;;0.80;99.90;;;;;;10490315;28;20109;-86
2022/01/13 07:13:24;;;;;;;127.93;52.73;;;0.80;99.90;;;;;;10490731;28;20060;-84
2022/01/13 07:18:25;;;;;;;150.53;62.97;;;0.80;99.90;;;;;;10489507;28;20099;-83
2022/01/13 07:23:25;;;;;;;207.77;87.60;;;0.80;99.90;;;;;;10489989;28;20044;-84
2022/01/13 07:28:26;;;;;;;182.23;77.00;;;0.80;99.90;;;;;;10489440;28;20032;-85
2022/01/13 07:33:28;;;;;;;193.60;78.30;;;0.70;99.90;;;;;;10494205;28;20399;-83
2022/01/13 07:38:28;;;;;;;180.13;74.00;;;0.60;99.90;;;;;;10497558;28;20595;-83
2022/01/13 07:43:30;;;;;;;183.23;77.07;;;0.60;99.90;;;;;;10497082;28;20248;-83
2022/01/13 07:48:31;;;;;;;219.40;91.00;;;0.60;99.90;;;;;;10496614;28;20065;-84
2022/01/13 07:53:31;;;;;;;897.33;355.33;;;0.50;99.90;;;;;;10496883;28;20519;-83
2022/01/13 07:58:34;;;;;;;207.97;85.17;;;0.50;99.90;;;;;;10496330;28;20032;-86
2022/01/13 08:03:35;;;;;;;252.77;101.87;;;0.40;99.90;;;;;;10495578;28;20484;-85
2022/01/13 08:08:36;;;;;;;142.60;63.73;;;0.30;99.90;;;;;;10495601;28;20060;-84
2022/01/13 08:13:37;;;;;;;139.83;62.27;;;0.30;99.90;;;;;;10496293;28;20094;-84
2022/01/13 08:23:57;;;;;;;144.03;62.20;;;0.30;99.90;;;;;;10495576;28;20048;-84
2022/01/13 08:28:58;;;;;;;120.17;54.13;;;0.30;99.90;;;;;;10495551;28;20452;-86
2022/01/13 08:33:59;;;;;;;127.27;58.97;;;0.40;99.90;;;;;;10476531;28;20086;-84
2022/01/13 08:38:59;;;;;;;157.93;70.53;;;0.50;99.90;;;;;;10494807;28;20040;-83
2022/01/13 08:44:00;;;;;;;145.23;69.20;;;0.50;99.90;;;;;;10478605;28;20379;-87
2022/01/13 08:49:02;;;;;;;163.20;79.70;;;0.60;99.90;;;;;;10494267;28;20103;-83
2022/01/13 08:54:03;;;;;;;147.17;66.57;;;0.60;99.90;;;;;;10478164;28;20644;-85
2022/01/13 08:59:04;;;;;;;125.63;57.93;;;0.60;99.90;;;;;;10494948;28;20060;-84
2022/01/13 09:04:04;;;;;;;149.47;64.17;;;0.60;99.90;;;;;;10493225;28;20120;-85
2022/01/13 09:09:05;;;;;;;131.53;54.20;;;0.70;99.90;;;;;;10493428;28;20028;-84
2022/01/13 09:14:06;;;;;;;115.27;53.00;;;0.80;99.90;;;;;;10493805;28;20161;-83
2022/01/13 09:19:10;;;;;;;115.27;49.23;;;0.70;99.90;;;;;;10492994;28;20036;-84
2022/01/13 09:24:17;;;;;;;106.40;44.93;;;0.80;99.90;;;;;;10474786;28;20384;-84
2022/01/13 09:29:17;;;;;;;91.10;41.87;;;0.80;99.90;;;;;;10492493;28;20027;-85
2022/01/13 09:34:18;;;;;;;142.23;65.83;;;0.80;99.90;;;;;;10493117;28;20047;-84
2022/01/13 09:39:19;;;;;;;104.30;47.63;;;0.90;99.90;;;;;;10483926;28;20035;-83
2022/01/13 09:44:19;;;;;;;108.07;46.90;;;0.80;99.90;;;;;;10492950;28;20041;-85
2022/01/13 09:49:21;;;;;;;104.27;47.33;;;0.80;99.90;;;;;;10492986;28;20028;-84
2022/01/13 09:54:21;;;;;;;106.10;45.13;;;0.80;99.90;;;;;;10491589;28;20021;-85
2022/01/13 09:59:22;;;;;;;118.70;49.23;;;0.80;99.90;;;;;;10492181;28;20032;-84
2022/01/13 10:04:23;;;;;;;127.80;53.73;;;0.90;99.90;;;;;;10491524;28;20040;-83
2022/01/13 10:09:23;;;;;;;132.63;59.03;;;0.90;99.90;;;;;;10473421;28;20040;-84
2022/01/13 10:19:35;;;;;;;121.57;52.65;;;1.20;99.90;;;;;;10491125;28;20036;-83
2022/01/13 10:24:42;;;;;;;109.00;48.17;;;1.20;99.90;;;;;;10491540;28;20109;-85
2022/01/13 10:29:46;;;;;;;92.90;44.63;;;1.30;99.90;;;;;;10490578;28;20025;-84
2022/01/13 10:34:58;;;;;;;99.67;45.60;;;1.40;99.90;;;;;;10490740;28;20037;-85
2022/01/13 10:40:11;;;;;;;93.07;45.23;;;1.40;99.90;;;;;;10490807;28;20035;-85
2022/01/13 10:45:17;;;;;;;86.63;41.50;;;1.40;99.90;;;;;;10472733;28;20037;-85
2022/01/13 10:50:18;;;;;;;98.33;44.87;;;1.40;99.90;;;;;;10490518;28;20020;-84
2022/01/13 10:55:23;;;;;;;90.97;43.47;;;1.40;99.90;;;;;;10490043;28;20052;-84
2022/01/13 11:00:26;;;;;;;92.73;43.70;;;1.40;99.90;;;;;;10490377;28;20028;-83
2022/01/13 11:05:29;;;;;;;99.70;44.97;;;1.40;99.90;;;;;;10489830;28;20035;-85
2022/01/13 11:10:30;;;;;;;93.00;44.30;;;1.40;99.90;;;;;;10498190;28;20076;-84
2022/01/13 11:15:31;;;;;;;97.40;42.30;;;1.60;99.90;;;;;;10498062;28;20084;-83
2022/01/13 11:20:31;;;;;;;87.60;41.10;;;1.60;99.90;;;;;;10498263;28;20422;-85
2022/01/13 11:25:34;;;;;;;95.83;45.13;;;1.80;99.90;;;;;;10497273;28;20060;-83
2022/01/13 11:30:36;;;;;;;88.10;40.13;;;1.90;99.90;;;;;;10479585;28;20400;-84
2022/01/13 11:35:45;;;;;;;84.80;38.00;;;2.00;99.90;;;;;;10497076;28;20082;-83
2022/01/13 11:40:48;;;;;;;83.93;38.43;;;1.90;99.90;;;;;;10479226;28;20116;-84
2022/01/13 11:45:49;;;;;;;97.70;45.60;;;2.00;99.90;;;;;;10478736;28;20111;-82
2022/01/13 11:50:54;;;;;;;92.43;42.07;;;1.90;99.90;;;;;;10496825;28;20063;-83
2022/01/13 11:56:07;;;;;;;106.10;48.77;;;1.90;99.90;;;;;;10478441;28;20082;-84
2022/01/13 12:01:17;;;;;;;106.47;45.97;;;1.90;99.90;;;;;;10496110;28;20068;-86
2022/01/13 12:06:40;;;;;;;131.60;53.93;;;1.90;99.90;;;;;;10478159;28;20224;-83
2022/01/13 12:11:54;;;;;;;104.97;49.73;;;2.00;99.90;;;;;;10496111;28;20060;-85
2022/01/13 12:17:01;;;;;;;108.00;47.20;;;2.00;99.90;;;;;;10495826;28;20603;-84
2022/01/13 12:22:36;;;;;;;119.53;50.47;;;2.10;99.90;;;;;;10494564;28;20059;-83
2022/01/13 12:27:40;;;;;;;97.87;46.57;;;2.20;99.90;;;;;;10470283;28;20040;-84
2022/01/13 12:32:45;;;;;;;95.93;43.63;;;2.30;99.90;;;;;;10495167;28;20133;-84
2022/01/13 12:38:18;;;;;;;88.30;40.83;;;2.30;99.90;;;;;;10494923;28;20540;-85
2022/01/13 12:43:47;;;;;;;106.20;48.27;;;2.30;99.90;;;;;;10494436;28;20037;-83
2022/01/13 12:48:53;;;;;;;91.17;42.33;;;2.40;99.90;;;;;;10494384;28;20400;-85
2022/01/13 12:53:57;;;;;;;;;;;2.40;99.90;;;;;;10494468;28;20039;-84
2022/01/13 12:59:02;;;;;;;95.33;45.53;;;2.50;99.90;;;;;;10494259;28;20275;-86
2022/01/13 13:04:09;;;;;;;87.15;40.33;;;2.50;99.90;;;;;;10475724;28;20032;-84
2022/01/13 13:09:12;;;;;;;92.80;41.47;;;2.50;99.90;;;;;;10493700;28;20047;-84
2022/01/13 13:14:32;;;;;;;96.50;43.67;;;2.50;99.90;;;;;;10493152;28;20124;-84
2022/01/13 13:19:39;;;;;;;90.17;41.07;;;2.50;99.90;;;;;;10463210;28;20021;-83
2022/01/13 13:24:41;;;;;;;108.13;52.27;;;2.50;99.90;;;;;;10448347;28;20049;-84
2022/01/13 13:29:42;;;;;;;107.60;48.73;;;2.50;99.90;;;;;;10450753;28;20431;-83
2022/01/13 13:34:43;;;;;;;106.80;49.90;;;2.50;99.90;;;;;;10450613;28;20075;-82
2022/01/13 13:39:43;;;;;;;160.87;73.00;;;2.50;99.90;;;;;;10451604;28;20021;-84
2022/01/13 13:44:45;;;;;;;97.90;42.67;;;2.50;99.90;;;;;;10460347;28;20024;-82
2022/01/13 13:49:48;;;;;;;94.77;42.03;;;2.50;99.90;;;;;;10482393;28;20082;-83
2022/01/13 13:54:52;;;;;;;114.17;52.20;;;2.60;99.90;;;;;;10451434;28;20025;-83
2022/01/13 13:59:55;;;;;;;117.77;54.57;;;2.50;99.90;;;;;;10450367;28;20091;-83
2022/01/13 14:05:01;;;;;;;143.87;67.20;;;2.60;99.90;;;;;;10450084;28;20029;-82
2022/01/13 14:10:15;;;;;;;121.50;57.97;;;2.60;99.90;;;;;;10442330;28;20118;-82
2022/01/13 14:15:26;;;;;;;148.63;67.20;;;2.60;99.90;;;;;;10431685;28;20398;-81
2022/01/13 14:20:28;;;;;;;103.40;45.67;;;2.60;99.90;;;;;;10444566;28;20028;-83
2022/01/13 14:25:39;;;;;;;121.13;55.83;;;2.60;99.90;;;;;;10488117;28;20044;-84
2022/01/13 14:30:48;;;;;;;107.47;49.33;;;2.60;99.90;;;;;;10473364;28;20443;-83
2022/01/13 14:36:07;;;;;;;108.73;48.30;;;2.60;99.90;;;;;;10447483;28;20124;-84
2022/01/13 14:41:11;;;;;;;125.13;59.47;;;2.70;99.90;;;;;;10449795;28;20056;-86
2022/01/13 14:46:13;;;;;;;109.57;47.50;;;2.60;99.90;;;;;;10453016;28;20028;-84
2022/01/13 14:51:17;;;;;;;119.00;54.90;;;2.60;99.90;;;;;;10447748;28;20053;-84
2022/01/13 14:56:19;;;;;;;150.47;65.83;;;2.70;99.90;;;;;;10445067;28;20033;-85
2022/01/13 15:01:21;;;;;;;118.03;53.97;;;2.70;99.90;;;;;;10497377;28;20029;-84
2022/01/13 15:06:23;;;;;;;165.47;73.77;;;2.60;99.90;;;;;;10496216;28;20098;-84
2022/01/13 15:11:24;;;;;;;150.60;65.47;;;2.70;99.90;;;;;;10496203;28;20048;-86
2022/01/13 15:16:25;;;;;;;172.67;74.00;;;2.70;99.90;;;;;;10497236;28;20037;-84
2022/01/13 15:21:28;;;;;;;151.03;68.33;;;2.60;99.90;;;;;;10497333;28;20383;-85
2022/01/13 15:26:29;;;;;;;117.67;51.47;;;2.60;99.90;;;;;;10497710;28;20021;-85
2022/01/13 15:31:30;;;;;;;113.80;51.53;;;2.60;99.90;;;;;;10497420;28;20464;-83
2022/01/13 15:36:30;;;;;;;113.00;51.27;;;2.60;99.90;;;;;;10498295;28;20032;-84
2022/01/13 15:41:35;;;;;;;123.57;54.87;;;2.50;99.90;;;;;;10497120;28;20024;-83
2022/01/13 15:46:36;;;;;;;144.03;64.53;;;2.40;99.90;;;;;;10456512;28;20388;-84
2022/01/13 15:51:37;;;;;;;109.27;48.00;;;2.20;99.90;;;;;;10455448;28;20022;-84
2022/01/13 15:56:38;;;;;;;108.17;49.47;;;2.10;99.90;;;;;;10455408;28;20035;-85
2022/01/13 16:01:38;;;;;;;123.23;55.03;;;2.00;99.90;;;;;;10437424;28;20037;-85
2022/01/13 16:06:39;;;;;;;152.83;66.97;;;1.90;99.90;;;;;;10454949;28;20033;-85
2022/01/13 16:11:40;;;;;;;136.33;59.13;;;1.90;99.90;;;;;;10455006;28;20404;-83
2022/01/13 16:16:41;;;;;;;135.93;61.37;;;1.80;99.90;;;;;;10455549;28;20123;-85
2022/01/13 16:21:42;;;;;;;133.37;60.37;;;1.80;99.90;;;;;;10433906;28;20090;-84
2022/01/13 16:26:43;;;;;;;154.07;67.43;;;1.80;99.90;;;;;;10451259;28;20029;-86
2022/01/13 16:31:43;;;;;;;128.90;57.63;;;1.80;99.90;;;;;;10447132;28;20037;-83
2022/01/13 16:36:44;;;;;;;142.40;66.33;;;1.80;99.90;;;;;;10451291;28;20079;-83
2022/01/13 16:41:45;;;;;;;179.53;82.10;;;1.70;99.90;;;;;;10452356;28;20465;-82
2022/01/13 16:46:45;;;;;;;205.13;95.43;;;1.70;99.90;;;;;;10457274;28;20179;-83
2022/01/13 16:51:46;;;;;;;239.17;116.10;;;1.60;99.90;;;;;;10452102;28;20036;-84
2022/01/13 16:56:46;;;;;;;250.67;110.83;;;1.70;99.90;;;;;;10465987;28;20457;-86
2022/01/13 17:01:47;;;;;;;176.80;81.27;;;1.60;99.90;;;;;;10452818;28;20043;-84
2022/01/13 17:06:48;;;;;;;158.20;71.37;;;1.70;99.90;;;;;;10452323;28;20119;-84
2022/01/13 17:11:49;;;;;;;197.97;85.53;;;1.70;99.90;;;;;;10431999;28;20041;-86
2022/01/13 17:16:53;;;;;;;176.80;83.93;;;1.80;99.90;;;;;;10449308;28;20033;-85
2022/01/13 17:21:53;;;;;;;163.50;74.27;;;1.80;99.90;;;;;;10468099;28;20025;-85
2022/01/13 17:26:54;;;;;;;178.03;83.43;;;1.80;99.90;;;;;;10448578;28;20523;-87
2022/01/13 17:31:55;;;;;;;156.17;74.43;;;1.80;99.90;;;;;;10437248;28;20032;-85
2022/01/13 17:36:56;;;;;;;152.17;70.23;;;1.80;99.90;;;;;;10452397;28;20091;-85
2022/01/13 17:41:58;;;;;;;143.53;67.70;;;1.90;99.90;;;;;;10447186;28;20087;-85
2022/01/13 17:46:59;;;;;;;169.37;78.83;;;1.80;99.90;;;;;;10448473;28;20037;-85
2022/01/13 17:52:00;;;;;;;159.53;74.83;;;1.80;99.90;;;;;;10470355;28;20067;-86
2022/01/13 17:57:42;;;;;;;140.03;68.77;;;1.80;99.90;;;;;;10464402;28;20041;-85
2022/01/13 18:02:46;;;;;;;143.77;64.37;;;1.80;99.90;;;;;;10403301;28;21525;-84
2022/01/13 18:07:48;;;;;;;142.67;67.43;;;1.80;99.90;;;;;;10437669;28;20021;-86
2022/01/13 18:12:52;;;;;;;134.30;63.83;;;1.90;99.90;;;;;;10464456;28;20048;-84
2022/01/13 18:17:52;;;;;;;138.20;66.77;;;1.80;99.90;;;;;;10466338;28;20036;-85
2022/01/13 18:22:53;;;;;;;141.17;68.83;;;1.90;99.90;;;;;;10458508;28;20045;-84
2022/01/13 18:27:54;;;;;;;141.97;67.73;;;1.80;99.90;;;;;;10480606;28;20050;-85
2022/01/13 18:32:54;;;;;;;136.97;68.60;;;1.80;99.90;;;;;;10473585;28;20035;-84
2022/01/13 18:37:55;;;;;;;131.57;65.03;;;1.80;99.90;;;;;;10463925;28;20041;-84
2022/01/13 18:42:58;;;;;;;135.90;65.73;;;1.90;99.90;;;;;;10439131;28;20098;-83
2022/01/13 18:48:05;;;;;;;145.17;73.77;;;1.90;99.90;;;;;;10427958;28;20029;-85
2022/01/13 18:53:08;;;;;;;140.97;70.93;;;1.90;99.90;;;;;;10444270;28;20045;-84
2022/01/13 18:58:09;;;;;;;151.97;73.53;;;1.90;99.90;;;;;;10465350;28;20028;-84
2022/01/13 19:03:11;;;;;;;164.53;81.93;;;2.00;99.90;;;;;;10433746;28;20041;-85
2022/01/13 19:08:12;;;;;;;154.80;75.30;;;2.00;99.90;;;;;;10457408;28;20033;-86
2022/01/13 19:13:13;;;;;;;134.93;66.70;;;2.10;99.90;;;;;;10441998;28;20080;-85
2022/01/13 19:18:19;;;;;;;156.07;74.63;;;2.10;99.90;;;;;;10451279;28;20017;-87
2022/01/13 19:23:21;;;;;;;133.68;68.15;;;2.20;99.90;;;;;;10441799;28;20095;-86
2022/01/13 19:28:25;;;;;;;130.87;65.43;;;2.20;99.90;;;;;;10460227;28;20044;-83
2022/01/13 19:33:26;;;;;;;144.27;66.40;;;2.30;99.90;;;;;;10431991;28;20036;-86
2022/01/13 19:38:27;;;;;;;146.57;66.80;;;2.40;99.90;;;;;;10426966;28;20392;-85
2022/01/13 19:43:30;;;;;;;154.57;73.63;;;2.40;99.90;;;;;;10466292;28;20097;-84
2022/01/13 19:48:33;;;;;;;126.30;59.57;;;2.40;99.90;;;;;;10435469;28;20029;-85
2022/01/13 19:53:38;;;;;;;110.17;52.87;;;2.50;99.90;;;;;;10425723;28;20358;-84
2022/01/13 19:58:38;;;;;;;118.43;52.60;;;2.50;99.90;;;;;;10472110;28;20029;-83
2022/01/13 20:03:39;;;;;;;121.70;58.93;;;2.50;99.90;;;;;;10465818;28;20067;-83
2022/01/13 20:08:40;;;;;;;109.67;52.03;;;2.40;99.90;;;;;;10465823;28;20036;-85
2022/01/13 20:13:41;;;;;;;108.30;56.20;;;2.40;99.90;;;;;;10435531;28;20136;-84
2022/01/13 20:18:42;;;;;;;107.20;50.47;;;2.40;99.90;;;;;;10455189;28;20495;-84
2022/01/13 20:23:45;;;;;;;110.93;53.37;;;2.40;99.90;;;;;;10455182;28;20127;-85
2022/01/13 20:28:46;;;;;;;131.90;63.50;;;2.40;99.90;;;;;;10467940;28;20025;-83
2022/01/13 20:33:46;;;;;;;108.33;51.97;;;2.50;99.90;;;;;;10461669;28;20044;-86
2022/01/13 20:38:47;;;;;;;106.17;52.73;;;2.40;99.90;;;;;;10452708;28;20036;-86
2022/01/13 20:43:48;;;;;;;113.60;55.43;;;2.50;99.90;;;;;;10463083;28;20090;-85
2022/01/13 20:48:49;;;;;;;157.40;70.67;;;2.50;99.90;;;;;;10451497;28;20494;-85
2022/01/13 20:53:50;;;;;;;178.73;75.93;;;2.50;99.90;;;;;;10431344;28;20029;-84
2022/01/13 20:58:51;;;;;;;134.77;57.47;;;2.50;99.90;;;;;;10469112;28;20108;-87
2022/01/13 21:03:51;;;;;;;144.30;59.10;;;2.50;99.90;;;;;;10443146;28;20067;-84
2022/01/13 21:08:52;;;;;;;144.53;61.60;;;2.40;99.90;;;;;;10452479;28;20491;-85
2022/01/13 21:13:54;;;;;;;132.97;58.70;;;2.40;99.90;;;;;;10444845;28;20485;-85
2022/01/13 21:18:55;;;;;;;90.63;44.50;;;2.40;99.90;;;;;;10438379;28;20113;-85
2022/01/13 21:23:56;;;;;;;102.50;46.30;;;2.40;99.90;;;;;;10423455;28;20048;-85
2022/01/13 21:28:57;;;;;;;170.90;64.07;;;2.40;99.90;;;;;;10421733;28;20066;-84
2022/01/13 21:33:58;;;;;;;195.40;73.30;;;2.40;99.90;;;;;;10445705;28;20075;-85
2022/01/13 21:38:59;;;;;;;121.93;56.70;;;2.40;99.90;;;;;;10447437;28;20025;-86
2022/01/13 21:44:00;;;;;;;103.77;50.67;;;2.40;99.90;;;;;;10429824;28;20391;-85
2022/01/13 21:49:01;;;;;;;115.10;53.67;;;2.50;99.90;;;;;;10448105;28;20112;-86
2022/01/13 21:54:02;;;;;;;105.47;45.90;;;2.50;99.90;;;;;;10448270;28;20033;-85
2022/01/13 21:59:04;;;;;;;101.23;45.30;;;2.50;99.90;;;;;;10430898;28;20036;-84
2022/01/13 22:04:05;;;;;;;149.07;59.63;;;2.50;99.90;;;;;;10447955;28;20047;-86
2022/01/13 22:14:07;;;;;;;159.90;61.60;;;2.50;99.90;;;;;;10449082;28;20084;-84
2022/01/13 22:19:10;;;;;;;153.77;63.43;;;2.50;99.90;;;;;;10450606;28;20112;-85
2022/01/13 22:24:11;;;;;;;101.80;46.60;;;2.50;99.90;;;;;;10447684;28;20045;-83
2022/01/13 22:29:13;;;;;;;176.60;70.77;;;2.60;99.90;;;;;;10448863;28;20067;-85
2022/01/13 22:34:14;;;;;;;153.60;64.33;;;2.60;99.90;;;;;;10448986;28;20441;-84
2022/01/13 22:39:16;;;;;;;119.30;48.77;;;2.60;99.90;;;;;;10410300;28;20033;-84
2022/01/13 22:44:17;;;;;;;118.53;49.67;;;2.60;99.90;;;;;;10440489;28;20488;-85
2022/01/13 22:49:17;;;;;;;100.33;41.90;;;2.70;99.90;;;;;;10447614;28;20025;-83
2022/01/13 22:54:18;;;;;;;142.27;58.00;;;2.60;99.90;;;;;;10449492;28;20090;-84
2022/01/13 22:59:19;;;;;;;125.70;52.67;;;2.60;99.90;;;;;;10430003;28;20039;-85
2022/01/13 23:04:19;;;;;;;163.13;70.13;;;2.70;99.90;;;;;;10434421;28;20045;-85
2022/01/13 23:09:20;;;;;;;113.70;46.10;;;2.70;99.90;;;;;;10455869;28;20032;-85
2022/01/13 23:14:41;;;;;;;93.90;39.43;;;2.70;99.90;;;;;;10455241;28;20545;-85
2022/01/13 23:25:01;;;;;;;77.17;33.97;;;2.80;99.90;;;;;;10456529;28;20048;-84
2022/01/13 23:30:01;;;;;;;71.07;30.97;;;2.80;99.90;;;;;;10455875;28;20465;-84
2022/01/13 23:35:02;;;;;;;56.43;25.33;;;2.80;99.90;;;;;;10457430;28;20037;-85
2022/01/13 23:40:04;;;;;;;48.87;23.70;;;2.90;99.90;;;;;;10455256;28;20048;-85
2022/01/13 23:45:08;;;;;;;56.50;25.37;;;2.90;99.90;;;;;;10461732;28;20112;-85
2022/01/13 23:50:09;;;;;;;58.67;26.00;;;2.90;99.90;;;;;;10434259;28;20027;-85
2022/01/13 23:55:10;;;;;;;54.10;23.87;;;2.90;99.90;;;;;;10456252;28;20041;-85
